Kahului Airport Kahului US
ICAO: PHOG
IATA:
Category: Medium
Scheduled Services:

Elevation: 54 ft
TransAlt. 18000 ft.

Airport Communications:
MAUI APP/DEP:119.5
ATIS:128.6
MAUI CLNC DEL:120.6
CTAF:118.7
GND:121.9
MAUI RDO:123.6
MAUI TWR:118.7
UNICOM:122.95

PHOG Zoom In..

If you have problems with the map follow the link
https://www.worldairports.se/pages/airport.php?
ICAO=PHOG

Runways:

(A) RW 02 length 6995 ft width 150 ft
ILS 110.10 / hdg 24

(B) RW 05 length 4990 ft width 150 ft
---- / hdg 54

(C) RW 20 length 6995 ft width 150 ft
---- / hdg 204

(D) RW 23 length 4990 ft width 150 ft
---- / hdg 234

Location; PHOG
Day. 24 / Time. 10.54 Zulu
* Altimeter: 30.11
* Temperature: 22° c. 71.6°f.
* Wind from: 040° Speed 09 kn.
Dewpoint: 17° c.
Visibility: 10 Statute Miles.
Clouds: Clear (automated report).

PHOG 241054Z AUTO 04009KT 10SM CLR 22/17 A3011 RMK AO2 SLP202 T02220167 TSNO


Wind From 040°
Speed 09 kn.

 
 
jpsmedia.com for Web Design worldairports.se 2019   terms of use